Terminal Aerodrome Forecast
Issued by NWS

Home | Current Version | Previous Version | Text Only | Print | Product List | Glossary On
Versions: 1 2 3 4 5 6 7 8 9 10 11 12 13 14 15 16
601
FTUS43 KLSX 151120
TAFUIN
TAF
KUIN 151120Z 1512/1612 26006KT P6SM OVC030
     FM151500 29009KT P6SM BKN050
     FM151800 26010G17KT P6SM SCT050
     FM152300 23008KT P6SM SCT200
     FM160600 21010KT P6SM FEW250 WS015/24035KT=

USA.gov is the U.S. government's official web portal to all federal, state and local government web resources and services.